Boston, MA

12:36 AM EST on February 11, 2016 (GMT -0500)
Sumner Place | | Change Station
CLOSE
Current Station
Personal Weather Station
Location: Boston, MA
Elevation: 56 ft
Nearby Weather Stations

Elev 56 ft 42.37 °N, 71.03 °W | Updated 10 seconds ago

Scattered Clouds
Scattered Clouds
29.8 °F
Feels Like 30 °F
N
0.0
Wind Variable Wind from SE

Today
High -- | Low -- °F
--% Chance of Precip.
Yesterday
High -- | Low -- °F
Precip. -- in
Pressure 29.65 in
Visibility 10.0 miles
Clouds Scattered Clouds 20000 ft
Windchill 30 °F
Dew Point 22 °F
Humidity 71%
Rainfall 0.00 in
Snow Depth Not available.
6:46 AM 5:10 PM
Waxing Crescent, 9% visible
METAR KBOS 110454Z 26009G18KT 10SM SCT200 M01/M07 A2965 RMK AO2 SLP040 T10061067 400221067
Pressure 29.65 in
Visibility 10.0 miles
Clouds Scattered Clouds 20000 ft
Windchill 30 °F
Dew Point 22 °F
Humidity 71%
Rainfall 0.00 in
Snow Depth Not available.
6:46 AM 5:10 PM
Waxing Crescent, 9% visible
METAR KBOS 110454Z 26009G18KT 10SM SCT200 M01/M07 A2965 RMK AO2 SLP040 T10061067 400221067

10-Day Weather Forecast

Almanac

Astronomy

Feb. 11, 2016 Rise Set
Actual Time
Civil Twilight
Nautical Twilight
Astronomical Twilight
Moon
Length of Visible Light
Length of Day
Tomorrow will be .
, % of the Moon is Illuminated

Today's Extremes

State Highs State Lows

Community

WunderPhotos

Upload Photos

1,892,023 photos uploaded!

WunderBlog® & News

Nearby

Air Quality

  Air Quality AQ Index Pollutant
Not available.

Snow Depth

Station Depth Elevation

Earthquake Activity

City Distance Mag. Time & Date
Minimum magnitude displayed is 2.5.

Coastal Water Temperatures

Place Temperature

Stations

Nearby Weather Stations

Station Location Temp. Windchill Dew Point Humidity Wind Precip. Elev Updated Type
                   

Watches & Warnings

There are currently no watches in effect.